• Join FlightAware (Why Join?)
  • Login
  • US Flag 
02:37AM EDT


 

Airport Tracker/Info


-or-


 

Live Flight TrackerFlight Track Log ✈ N39PH ✈ 06-May-2013 ✈ KDRO - KABQ

Flight Track Log - Related Links

Times and Time Zones

All times are in EDT time to prevent confusion due to time zone crossing. See the N39PH flight status page for this flight to view local times or setup timezone preferences in your user account.

Time Position Orientation Groundspeed Altitude Reporting Facility
EDT Latitude Longitude Course Direction KTS MPH feet Rate Location/Type
12:04AM 36.9853 -107.6844 154° Southeast 172 198 14,600  Level Albuquerque Center
12:05AM 36.9322 -107.6592 159° South 178 205 16,400 1,500 Climbing Albuquerque Center
12:06AM 36.8856 -107.6325 155° Southeast 183 211 17,700 1,020 Climbing Denver Center
12:08AM 36.8369 -107.6039 155° Southeast 194 223 18,700 540 Climbing Denver Center
12:09AM 36.7874 -107.5523 156° South  Level FlightAware Approximate
12:09AM 36.7589 -107.5675 160° South 228 262 19,000  Level Denver Center
12:10AM 36.6964 -107.5289 154° Southeast 255 293 19,100  Climbing Denver Center
12:11AM 36.6217 -107.4850 155° Southeast 263 303 19,000 -120 Descending Denver Center
12:12AM 36.5608 -107.4439 152° Southeast 260 299 18,900  Descending Denver Center
12:13AM 36.4836 -107.4008 156° South 268 308 19,000  Climbing Denver Center
12:14AM 36.4181 -107.3681 158° South 267 307 19,000  Level Denver Center
12:15AM 36.3617 -107.3425 160° South 268 308 19,000  Level Albuquerque Center
12:16AM 36.2969 -107.3047 155° Southeast 269 310 19,000  Level Albuquerque Center
12:17AM 36.2178 -107.2628 157° South 273 314 19,000  Level Albuquerque Center
12:18AM 36.1508 -107.2342 161° South 268 308 19,000  Level Albuquerque Center
12:19AM 36.0811 -107.2108 165° South 269 310 19,000  Level Albuquerque Center
12:20AM 35.9994 -107.1850 166° South 270 311 19,000 -300 Level Albuquerque Center
12:21AM 35.9408 -107.1644 164° South 271 312 18,500 -780 Descending Albuquerque Center
12:22AM 35.8550 -107.1317 163° South 270 311 17,500 -960 Descending Albuquerque Center
12:23AM 35.7858 -107.1058 163° South 263 303 16,600 -1,020 Descending Albuquerque Center
12:23AM 35.7614 -107.0956 161° South 256 295 16,200 -1,080 Descending Albuquerque Center
12:24AM 35.7222 -107.0794 162° South 245 282 15,600 -1,020 Descending Albuquerque Center
12:25AM 35.6583 -107.0539 162° South 243 280 14,600 -960 Descending Albuquerque Center
12:26AM 35.5922 -107.0289 163° South 243 280 13,700 -900 Descending Albuquerque Center
12:27AM 35.5303 -107.0031 161° South 238 274 12,800 -840 Descending Albuquerque Center
12:28AM 35.4681 -106.9744 159° South 237 273 12,000 -780 Descending Albuquerque Center
12:29AM 35.4003 -106.9397 157° South 239 275 11,200 -480 Descending Albuquerque Center
12:30AM 35.3506 -106.9003 147° Southeast 242 278 11,000 -180 Descending Albuquerque Center
12:31AM 35.2944 -106.8514 145° Southeast 246 283 10,900 -540 Descending Albuquerque Center
12:32AM 35.2356 -106.8086 149° Southeast 245 282 10,000 -840 Descending Albuquerque Center
12:33AM 35.1728 -106.7767 157° South 244 281 9,200 -960 Descending Albuquerque Center
12:34AM 35.1025 -106.7458 160° South 222 255 8,100 -960 Descending Albuquerque Center
12:35AM 35.0603 -106.7253 158° South 212 244 7,300 -1,020 Descending Albuquerque Center
12:36AM 35.0197 -106.6867 142° Southeast 148 170 6,100 -840 Descending Albuquerque Center
12:37AM 35.0106 -106.6486 106° East 155 178 5,700 -420 Descending Albuquerque Center
12:38AM 35.0303 -106.6200 50° Northeast 129 148 5,300 -420 Descending Albuquerque Center